Time;durP1;ratioP1;P1;durP2;ratioP2;P2;SDS_P1;SDS_P2;PMS_P1;PMS_P2;Temp;Humidity;BMP_temperature;BMP_pressure;BME280_temperature;BME280_humidity;BME280_pressure;Samples;Min_cycle;Max_cycle;Signal;HPM_P1;HPM_P2
2023/08/17 00:00:08;;;;;;;;;;;;;;;20.14;100.00;95791.63;10527687;28;1920;-86
2023/08/17 00:05:20;;;;;;;;;;;;;;;20.13;100.00;95787.31;10520066;28;2209;-86
2023/08/17 00:10:23;;;;;;;;;;;;;;;20.14;100.00;95786.97;10537622;28;2009;-86
2023/08/17 00:15:36;;;;;;;;;;;;;;;20.01;100.00;95782.59;10539550;28;2153;-86
2023/08/17 00:20:48;;;;;;;;;;;;;;;20.00;100.00;95788.38;10527192;28;2191;-86
2023/08/17 00:26:01;;;;;;;;;;;;;;;20.09;100.00;95783.66;10524541;28;1957;-86
2023/08/17 00:31:20;;;;;;;;;;;;;;;20.12;100.00;95785.72;10528138;28;2029;-86
2023/08/17 00:36:33;;;;;;;;;;;;;;;20.00;100.00;95794.63;10515913;28;2014;-86
2023/08/17 00:41:38;;;;;;;;;;;;;;;20.10;100.00;95793.41;10497957;28;1981;-86
2023/08/17 00:52:27;;;;;;;;;;;;;;;20.23;100.00;95789.63;10487671;28;2111;-87
2023/08/17 00:57:44;;;;;;;;;;;;;;;20.16;100.00;95794.81;10494880;28;2292;-87
2023/08/17 01:03:03;;;;;;;;;;;;;;;20.07;100.00;95775.81;10491479;28;1892;-86
2023/08/17 01:08:42;;;;;;;;;;;;;;;19.95;100.00;95782.00;10501265;28;2056;-86
2023/08/17 01:13:46;;;;;;;;;;;;;;;19.98;100.00;95784.06;10494624;28;2092;-87
2023/08/17 01:19:01;;;;;;;;;;;;;;;19.96;100.00;95780.84;10494206;28;1995;-87
2023/08/17 01:24:14;;;;;;;;;;;;;;;19.81;100.00;95799.75;10512627;28;1955;-87
2023/08/17 01:29:33;;;;;;;;;;;;;;;19.81;100.00;95802.50;10497908;28;2042;-88
2023/08/17 01:40:23;;;;;;;;;;;;;;;19.59;100.00;95792.66;10500249;28;2044;-86
2023/08/17 01:45:31;;;;;;;;;;;;;;;19.59;100.00;95798.13;10498893;28;2090;-87
2023/08/17 01:50:48;;;;;;;;;;;;;;;19.69;100.00;95786.84;10499831;28;1975;-87
2023/08/17 01:56:02;;;;;;;;;;;;;;;19.61;100.00;95793.16;10489672;28;2313;-86
2023/08/17 02:01:07;;;;;;;;;;;;;;;19.54;100.00;95771.03;10499159;28;2137;-87
2023/08/17 02:06:13;;;;;;;;;;;;;;;19.39;100.00;95769.66;10491138;28;1981;-79
2023/08/17 02:11:20;;;;;;;;;;;;;;;19.22;100.00;95770.59;10494657;28;1988;-79
2023/08/17 02:16:42;;;;;;;;;;;;;;;19.20;100.00;95772.03;10491431;28;2166;-78
2023/08/17 02:21:47;;;;;;;;;;;;;;;19.19;100.00;95768.50;10500933;28;1964;-80
2023/08/17 02:27:04;;;;;;;;;;;;;;;19.15;100.00;95765.66;10488042;28;1975;-80
2023/08/17 02:32:10;;;;;;;;;;;;;;;19.14;100.00;95765.97;10470865;28;2287;-79
2023/08/17 02:37:19;;;;;;;;;;;;;;;19.04;100.00;95753.53;10485489;28;1942;-81
2023/08/17 02:42:25;;;;;;;;;;;;;;;19.03;100.00;95748.41;10490412;28;1986;-80
2023/08/17 02:47:29;;;;;;;;;;;;;;;19.02;100.00;95754.97;10490629;28;1986;-78
2023/08/17 02:52:32;;;;;;;;;;;;;;;18.95;100.00;95763.63;10485155;28;1982;-78
2023/08/17 02:57:59;;;;;;;;;;;;;;;18.83;100.00;95767.06;10483767;28;2011;-80
2023/08/17 03:08:27;;;;;;;;;;;;;;;18.85;100.00;95775.72;10483066;28;1975;-77
2023/08/17 03:13:30;;;;;;;;;;;;;;;18.87;100.00;95769.94;10502532;28;2058;-79
2023/08/17 03:18:49;;;;;;;;;;;;;;;18.78;100.00;95772.69;10486088;28;1937;-81
2023/08/17 03:24:04;;;;;;;;;;;;;;;18.65;100.00;95776.41;10486321;28;1884;-80
2023/08/17 03:29:13;;;;;;;;;;;;;;;18.84;100.00;95776.84;10485889;28;2189;-79
2023/08/17 03:34:25;;;;;;;;;;;;;;;18.83;100.00;95782.59;10488278;28;1924;-80
2023/08/17 03:39:39;;;;;;;;;;;;;;;18.72;100.00;95787.59;10490676;28;2147;-79
2023/08/17 03:44:45;;;;;;;;;;;;;;;18.78;100.00;95780.88;10494295;28;1927;-79
2023/08/17 03:49:49;;;;;;;;;;;;;;;18.64;100.00;95785.69;10490342;28;1991;-77
2023/08/17 03:54:54;;;;;;;;;;;;;;;18.60;100.00;95780.09;10485905;28;1991;-78
2023/08/17 04:00:01;;;;;;;;;;;;;;;18.60;100.00;95780.09;10490072;28;2218;-78
2023/08/17 04:05:12;;;;;;;;;;;;;;;18.57;100.00;95786.16;10499883;28;2269;-78
2023/08/17 04:10:18;;;;;;;;;;;;;;;18.63;100.00;95789.50;10489341;28;1969;-79
2023/08/17 04:15:23;;;;;;;;;;;;;;;18.56;100.00;95795.44;10500062;28;1905;-78
2023/08/17 04:20:31;;;;;;;;;;;;;;;18.67;100.00;95797.88;10483889;28;1909;-81
2023/08/17 04:25:35;;;;;;;;;;;;;;;18.70;100.00;95803.44;10486966;28;1961;-79
2023/08/17 04:30:39;;;;;;;;;;;;;;;18.78;100.00;95805.38;10493474;28;1941;-79
2023/08/17 04:35:53;;;;;;;;;;;;;;;18.79;100.00;95812.41;10490316;28;1972;-78
2023/08/17 04:41:03;;;;;;;;;;;;;;;18.84;100.00;95820.41;10501565;28;4568;-78
2023/08/17 04:46:14;;;;;;;;;;;;;;;19.11;100.00;95816.47;10490824;28;2397;-78
2023/08/17 04:51:21;;;;;;;;;;;;;;;19.17;100.00;95826.06;10490525;28;1975;-79
2023/08/17 04:56:31;;;;;;;;;;;;;;;19.39;100.00;95814.09;10521225;27;2114;-79
2023/08/17 05:01:35;;;;;;;;;;;;;;;19.68;100.00;95815.25;10490843;28;1951;-77
2023/08/17 05:06:41;;;;;;;;;;;;;;;19.85;100.00;95817.88;10493637;28;2007;-77
2023/08/17 05:11:45;;;;;;;;;;;;;;;20.17;100.00;95812.81;10497052;28;2151;-77
2023/08/17 05:16:55;;;;;;;;;;;;;;;20.65;100.00;95800.50;10497526;28;1962;-78
2023/08/17 05:22:00;;;;;;;;;;;;;;;21.14;100.00;95792.41;10493004;28;1995;-77
2023/08/17 05:27:09;;;;;;;;;;;;;;;21.39;100.00;95796.78;10500080;28;1993;-78
2023/08/17 05:32:15;;;;;;;;;;;;;;;21.75;100.00;95795.91;10492380;28;1976;-79
2023/08/17 05:37:19;;;;;;;;;;;;;;;21.85;100.00;95786.44;10491414;28;2109;-77
2023/08/17 05:42:24;;;;;;;;;;;;;;;22.06;100.00;95798.03;10491184;28;4613;-78
2023/08/17 05:47:28;;;;;;;;;;;;;;;22.18;100.00;95789.00;10482044;28;1985;-69
2023/08/17 05:52:31;;;;;;;;;;;;;;;22.43;100.00;95788.91;10479776;28;2051;-67
2023/08/17 05:57:35;;;;;;;;;;;;;;;22.80;100.00;95787.59;10484374;28;1960;-68
2023/08/17 06:02:38;;;;;;;;;;;;;;;23.20;100.00;95786.66;10469969;28;2399;-69
2023/08/17 06:07:43;;;;;;;;;;;;;;;23.39;100.00;95780.47;10468791;28;2012;-69
2023/08/17 06:12:47;;;;;;;;;;;;;;;23.58;100.00;95783.25;10469913;28;1948;-68
2023/08/17 06:17:51;;;;;;;;;;;;;;;23.66;100.00;95787.78;10468433;28;1933;-66
2023/08/17 06:22:54;;;;;;;;;;;;;;;23.61;100.00;95787.25;10469080;28;2222;-68
2023/08/17 06:27:57;;;;;;;;;;;;;;;23.94;100.00;95782.16;10470762;28;2006;-68
2023/08/17 06:33:00;;;;;;;;;;;;;;;24.08;100.00;95780.84;10469535;28;2007;-68
2023/08/17 06:38:04;;;;;;;;;;;;;;;24.25;100.00;95783.97;10469403;28;2041;-68
2023/08/17 06:43:08;;;;;;;;;;;;;;;24.47;100.00;95779.72;10464489;28;4553;-68
2023/08/17 06:48:12;;;;;;;;;;;;;;;24.49;100.00;95776.59;10470162;28;2040;-68
2023/08/17 06:53:18;;;;;;;;;;;;;;;24.72;100.00;95774.72;10467391;28;2082;-70
2023/08/17 06:58:22;;;;;;;;;;;;;;;24.83;100.00;95771.38;10463494;28;2033;-68
2023/08/17 07:03:28;;;;;;;;;;;;;;;24.67;100.00;95776.97;10474065;28;1998;-68
2023/08/17 07:08:32;;;;;;;;;;;;;;;25.09;100.00;95782.47;10467761;28;1934;-70
2023/08/17 07:13:42;;;;;;;;;;;;;;;25.85;100.00;95791.56;10472227;28;1909;-73
2023/08/17 07:18:46;;;;;;;;;;;;;;;25.70;100.00;95794.44;10468704;28;1991;-68
2023/08/17 07:23:50;;;;;;;;;;;;;;;25.57;100.00;95785.59;10475175;28;1979;-68
2023/08/17 07:28:57;;;;;;;;;;;;;;;25.41;100.00;95794.00;10472878;28;1969;-68
2023/08/17 07:34:03;;;;;;;;;;;;;;;25.66;100.00;95794.41;10467707;28;2449;-68
2023/08/17 07:39:08;;;;;;;;;;;;;;;25.69;100.00;95799.16;10467838;28;1903;-69
2023/08/17 07:44:12;;;;;;;;;;;;;;;25.17;100.00;95788.88;10469606;28;4737;-71
2023/08/17 07:49:15;;;;;;;;;;;;;;;25.96;100.00;95790.91;10471426;28;1951;-71
2023/08/17 07:54:34;;;;;;;;;;;;;;;26.06;100.00;95795.78;10476308;28;1900;-72
2023/08/17 07:59:37;;;;;;;;;;;;;;;26.27;100.00;95795.25;10477121;28;2139;-71
2023/08/17 08:04:40;;;;;;;;;;;;;;;26.23;100.00;95781.44;10487500;28;2056;-70
2023/08/17 08:09:45;;;;;;;;;;;;;;;25.86;100.00;95784.88;10478258;28;1910;-69
2023/08/17 08:14:49;;;;;;;;;;;;;;;26.45;100.00;95778.97;10493296;28;1977;-69
2023/08/17 08:19:54;;;;;;;;;;;;;;;26.83;100.00;95775.06;10481604;28;2039;-68
2023/08/17 08:24:59;;;;;;;;;;;;;;;27.08;100.00;95773.38;10464334;28;2165;-71
2023/08/17 08:30:02;;;;;;;;;;;;;;;27.14;100.00;95777.38;10474885;28;2396;-69
2023/08/17 08:35:05;;;;;;;;;;;;;;;27.16;100.00;95776.97;10469490;28;2139;-68
2023/08/17 08:40:08;;;;;;;;;;;;;;;27.03;100.00;95778.41;10474137;28;2182;-67
2023/08/17 08:45:11;;;;;;;;;;;;;;;27.33;100.00;95778.31;10474521;28;4631;-68
2023/08/17 08:50:17;;;;;;;;;;;;;;;26.81;100.00;95782.94;10468908;28;1991;-67
2023/08/17 08:55:21;;;;;;;;;;;;;;;27.18;100.00;95769.13;10472700;28;1958;-69
2023/08/17 09:00:29;;;;;;;;;;;;;;;27.54;100.00;95769.41;10474836;28;1896;-67
2023/08/17 09:05:35;;;;;;;;;;;;;;;26.85;100.00;95769.97;10471714;28;1935;-68
2023/08/17 09:10:39;;;;;;;;;;;;;;;27.71;100.00;95766.81;10474487;28;1914;-69
2023/08/17 09:15:42;;;;;;;;;;;;;;;28.00;100.00;95756.72;10466602;28;1946;-69
2023/08/17 09:20:46;;;;;;;;;;;;;;;28.27;100.00;95759.22;10469879;28;2056;-69
2023/08/17 09:25:57;;;;;;;;;;;;;;;28.17;100.00;95754.44;10469745;28;2258;-68
2023/08/17 09:31:00;;;;;;;;;;;;;;;28.32;100.00;95750.59;10470432;28;1964;-69
2023/08/17 09:36:07;;;;;;;;;;;;;;;27.92;100.00;95749.56;10475129;28;1941;-68
2023/08/17 09:41:11;;;;;;;;;;;;;;;28.89;100.00;95747.97;10467576;28;4548;-68
2023/08/17 09:46:14;;;;;;;;;;;;;;;29.14;100.00;95741.69;10503674;27;2038;-68
2023/08/17 09:51:17;;;;;;;;;;;;;;;28.90;100.00;95749.56;10483008;28;1982;-69
2023/08/17 09:56:22;;;;;;;;;;;;;;;28.27;100.00;95742.63;10471995;28;1908;-68
2023/08/17 10:01:26;;;;;;;;;;;;;;;28.27;100.00;95740.66;10472242;28;1942;-68
2023/08/17 10:06:33;;;;;;;;;;;;;;;27.91;100.00;95742.44;10470016;28;1928;-68
2023/08/17 10:11:38;;;;;;;;;;;;;;;28.01;100.00;95746.47;10472271;28;1963;-69
2023/08/17 10:16:49;;;;;;;;;;;;;;;28.22;100.00;95741.03;10467454;28;1887;-67
2023/08/17 10:21:53;;;;;;;;;;;;;;;28.00;100.00;95740.16;10469867;28;2593;-67
2023/08/17 10:26:57;;;;;;;;;;;;;;;28.61;100.00;95734.88;10471228;28;1979;-69
2023/08/17 10:32:01;;;;;;;;;;;;;;;28.55;100.00;95741.97;10474442;28;1944;-67
2023/08/17 10:37:05;;;;;;;;;;;;;;;28.50;100.00;95740.38;10468901;28;1896;-68
2023/08/17 10:42:13;;;;;;;;;;;;;;;28.74;100.00;95733.31;10477239;28;4533;-74
2023/08/17 10:47:17;;;;;;;;;;;;;;;28.74;100.00;95727.00;10464448;28;2128;-73
2023/08/17 10:52:41;;;;;;;;;;;;;;;29.43;100.00;95726.66;10471932;28;1975;-73
2023/08/17 10:57:46;;;;;;;;;;;;;;;29.33;100.00;95730.25;10467012;28;2274;-76
2023/08/17 11:02:53;;;;;;;;;;;;;;;29.24;100.00;95727.88;10470984;28;1983;-74
2023/08/17 11:07:56;;;;;;;;;;;;;;;28.84;100.00;95731.75;10466311;28;2237;-73
2023/08/17 11:13:04;;;;;;;;;;;;;;;29.73;100.00;95728.25;10470503;28;1951;-73
2023/08/17 11:18:07;;;;;;;;;;;;;;;30.67;100.00;95720.03;10462441;28;2242;-74
2023/08/17 11:23:17;;;;;;;;;;;;;;;30.06;100.00;95722.22;10472974;28;2097;-76
2023/08/17 11:28:45;;;;;;;;;;;;;;;29.81;100.00;95713.19;10472817;28;2117;-75
2023/08/17 11:33:50;;;;;;;;;;;;;;;29.31;100.00;95716.00;10471896;28;1971;-71
2023/08/17 11:38:58;;;;;;;;;;;;;;;29.31;100.00;95707.69;10473916;28;1967;-75
2023/08/17 11:44:07;;;;;;;;;;;;;;;29.39;100.00;95697.41;10486107;28;4535;-72
2023/08/17 11:49:14;;;;;;;;;;;;;;;29.19;100.00;95697.81;10497245;28;1979;-72
2023/08/17 11:54:17;;;;;;;;;;;;;;;29.96;100.00;95695.31;10473607;28;1927;-71
2023/08/17 11:59:21;;;;;;;;;;;;;;;29.53;100.00;95686.34;10465523;28;1970;-71
2023/08/17 12:04:26;;;;;;;;;;;;;;;29.61;100.00;95683.16;10465236;28;2056;-71
2023/08/17 12:09:31;;;;;;;;;;;;;;;29.55;100.00;95687.53;10468876;28;1971;-72
2023/08/17 12:14:36;;;;;;;;;;;;;;;29.53;100.00;95681.59;10468581;28;2409;-73
2023/08/17 12:19:47;;;;;;;;;;;;;;;29.65;100.00;95674.03;10464947;28;1921;-73
2023/08/17 12:24:51;;;;;;;;;;;;;;;29.95;100.00;95671.56;10468038;28;1975;-74
2023/08/17 12:29:54;;;;;;;;;;;;;;;29.28;100.00;95661.44;10470865;28;2076;-74
2023/08/17 12:34:59;;;;;;;;;;;;;;;29.45;100.00;95657.03;10468577;28;2129;-73
2023/08/17 12:40:09;;;;;;;;;;;;;;;29.03;100.00;95644.84;10475351;28;1943;-74
2023/08/17 12:45:14;;;;;;;;;;;;;;;29.56;100.00;95641.22;10473023;28;4564;-72
2023/08/17 12:50:17;;;;;;;;;;;;;;;29.76;100.00;95636.81;10474845;28;1942;-75
2023/08/17 12:55:21;;;;;;;;;;;;;;;29.21;100.00;95640.09;10477806;28;1924;-74
2023/08/17 13:00:26;;;;;;;;;;;;;;;29.56;97.91;95632.91;10476904;28;2071;-73
2023/08/17 13:05:30;;;;;;;;;;;;;;;29.60;96.55;95623.41;10472651;28;2037;-74
2023/08/17 13:10:37;;;;;;;;;;;;;;;29.71;94.88;95631.69;10469275;28;2323;-74
2023/08/17 13:15:43;;;;;;;;;;;;;;;29.91;87.87;95626.47;10457804;28;1980;-75
2023/08/17 13:20:47;;;;;;;;;;;;;;;29.80;81.99;95625.72;10502612;27;1962;-74
2023/08/17 13:25:50;;;;;;;;;;;;;;;29.96;79.15;95616.94;10483274;28;1942;-73
2023/08/17 13:30:54;;;;;;;;;;;;;;;29.73;81.32;95618.22;10478280;28;1975;-72
2023/08/17 13:36:01;;;;;;;;;;;;;;;29.53;81.64;95612.38;10472977;28;1938;-74
2023/08/17 13:41:08;;;;;;;;;;;;;;;29.68;86.22;95606.78;10474752;28;1955;-73
2023/08/17 13:46:15;;;;;;;;;;;;;;;29.89;90.10;95606.66;10477493;28;1919;-73
2023/08/17 13:56:41;;;;;;;;;;;;;;;28.83;95.49;95611.22;10468077;28;1938;-74
2023/08/17 14:01:48;;;;;;;;;;;;;;;28.60;94.81;95599.75;10475073;28;1923;-73
2023/08/17 14:06:52;;;;;;;;;;;;;;;28.34;100.00;95595.41;10507473;27;2299;-69
2023/08/17 14:11:59;;;;;;;;;;;;;;;27.89;100.00;95590.13;10477683;28;2255;-69
2023/08/17 14:17:03;;;;;;;;;;;;;;;27.84;100.00;95582.22;10474026;28;1927;-71
2023/08/17 14:22:05;;;;;;;;;;;;;;;27.48;100.00;95575.72;10475683;28;1999;-69
2023/08/17 14:27:12;;;;;;;;;;;;;;;27.55;100.00;95563.91;10489689;28;2180;-73
2023/08/17 14:32:15;;;;;;;;;;;;;;;27.69;100.00;95561.28;10478110;28;1978;-69
2023/08/17 14:37:25;;;;;;;;;;;;;;;28.17;100.00;95566.50;10470942;28;2062;-70
2023/08/17 14:42:29;;;;;;;;;;;;;;;28.42;100.00;95559.06;10481415;28;4560;-76
2023/08/17 14:47:32;;;;;;;;;;;;;;;28.80;100.00;95553.91;10482115;28;2029;-69
2023/08/17 14:52:36;;;;;;;;;;;;;;;29.19;100.00;95548.34;10472762;28;1973;-68
2023/08/17 14:57:39;;;;;;;;;;;;;;;28.72;100.00;95552.34;10472298;28;2048;-68
2023/08/17 15:02:43;;;;;;;;;;;;;;;28.44;100.00;95553.94;10474881;28;2320;-69
2023/08/17 15:07:53;;;;;;;;;;;;;;;29.12;100.00;95558.66;10468361;28;2016;-69
2023/08/17 15:12:57;;;;;;;;;;;;;;;29.18;100.00;95555.06;10467772;28;2164;-70
2023/08/17 15:18:02;;;;;;;;;;;;;;;29.24;100.00;95572.06;10477395;28;2060;-71
2023/08/17 15:23:08;;;;;;;;;;;;;;;28.64;100.00;95590.28;10475533;28;1987;-68
2023/08/17 15:28:11;;;;;;;;;;;;;;;28.89;100.00;95595.81;10477616;28;2027;-68
2023/08/17 15:33:14;;;;;;;;;;;;;;;28.20;100.00;95593.38;10484628;28;2096;-70
2023/08/17 15:38:17;;;;;;;;;;;;;;;28.35;100.00;95599.75;10476427;28;1806;-70
2023/08/17 15:43:21;;;;;;;;;;;;;;;28.55;100.00;95615.56;10480566;28;4588;-70
2023/08/17 15:48:26;;;;;;;;;;;;;;;28.36;100.00;95612.38;10474353;28;1960;-68
2023/08/17 15:53:29;;;;;;;;;;;;;;;28.00;100.00;95606.75;10471366;28;1932;-67
2023/08/17 15:58:32;;;;;;;;;;;;;;;28.21;100.00;95594.94;10475158;28;2270;-70
2023/08/17 16:03:38;;;;;;;;;;;;;;;28.35;100.00;95575.66;10476072;28;1958;-72
2023/08/17 16:08:44;;;;;;;;;;;;;;;28.26;100.00;95580.75;10472626;28;1889;-71
2023/08/17 16:13:54;;;;;;;;;;;;;;;28.25;100.00;95579.97;10471594;28;1980;-73
2023/08/17 16:18:59;;;;;;;;;;;;;;;28.08;100.00;95591.75;10488790;28;1656;-74
2023/08/17 16:24:07;;;;;;;;;;;;;;;28.16;100.00;95607.16;10488276;28;1904;-76
2023/08/17 16:29:10;;;;;;;;;;;;;;;27.65;100.00;95646.03;10483316;28;1958;-75
2023/08/17 16:34:14;;;;;;;;;;;;;;;25.85;100.00;95681.41;10473268;28;2031;-75
2023/08/17 16:39:30;;;;;;;;;;;;;;;24.65;100.00;95718.81;10462054;28;1933;-79
2023/08/17 16:44:42;;;;;;;;;;;;;;;24.11;100.00;95738.94;10506198;27;4489;-78
2023/08/17 16:49:45;;;;;;;;;;;;;;;24.10;100.00;95765.59;10471463;28;1983;-77
2023/08/17 16:54:52;;;;;;;;;;;;;;;23.97;100.00;95764.16;10477426;28;2395;-78
2023/08/17 17:00:05;;;;;;;;;;;;;;;23.88;100.00;95788.28;10467547;28;1892;-79
2023/08/17 17:05:13;;;;;;;;;;;;;;;23.82;100.00;95782.28;10468064;28;1951;-77
2023/08/17 17:10:18;;;;;;;;;;;;;;;23.63;100.00;95785.75;10470605;28;1983;-78
2023/08/17 17:15:25;;;;;;;;;;;;;;;22.04;100.00;95830.44;10476326;28;1868;-77
2023/08/17 17:20:31;;;;;;;;;;;;;;;20.77;100.00;95855.16;10471785;28;1904;-78
2023/08/17 17:25:34;;;;;;;;;;;;;;;20.19;100.00;95859.66;10473327;28;1833;-80
2023/08/17 17:30:41;;;;;;;;;;;;;;;20.05;100.00;95862.66;10452383;28;1967;-83
2023/08/17 17:35:58;;;;;;;;;;;;;;;19.82;100.00;95859.44;10476622;28;1912;-80
2023/08/17 17:41:13;;;;;;;;;;;;;;;19.66;100.00;95872.06;10472539;28;4500;-83
2023/08/17 17:46:22;;;;;;;;;;;;;;;19.50;100.00;95876.41;10468745;28;1932;-82
2023/08/17 17:51:24;;;;;;;;;;;;;;;19.30;100.00;95873.31;10474689;28;1898;-80
2023/08/17 17:56:30;;;;;;;;;;;;;;;19.43;100.00;95877.72;10472826;28;1981;-79
2023/08/17 18:07:07;;;;;;;;;;;;;;;19.43;100.00;95875.00;10466792;28;2102;-80
2023/08/17 18:12:09;;;;;;;;;;;;;;;19.83;100.00;95877.38;10471503;28;1979;-68
2023/08/17 18:17:13;;;;;;;;;;;;;;;19.81;100.00;95882.38;10483605;28;1970;-73
2023/08/17 18:22:18;;;;;;;;;;;;;;;19.82;100.00;95918.66;10471264;28;1948;-69
2023/08/17 18:27:24;;;;;;;;;;;;;;;19.58;100.00;95976.50;10486111;28;2162;-69
2023/08/17 18:32:28;;;;;;;;;;;;;;;19.44;100.00;95993.03;10471563;28;2013;-69
2023/08/17 18:37:31;;;;;;;;;;;;;;;19.33;100.00;95998.00;10466274;28;2099;-69
2023/08/17 18:42:36;;;;;;;;;;;;;;;18.92;100.00;96030.44;10470354;28;4727;-68
2023/08/17 18:47:39;;;;;;;;;;;;;;;18.59;100.00;96028.16;10471305;28;2288;-69
2023/08/17 18:52:41;;;;;;;;;;;;;;;18.44;100.00;96021.22;10471046;28;2003;-68
2023/08/17 18:57:49;;;;;;;;;;;;;;;18.52;100.00;96019.66;10477272;28;1927;-69
2023/08/17 19:02:52;;;;;;;;;;;;;;;18.64;100.00;96011.66;10473163;28;1445;-68
2023/08/17 19:07:55;;;;;;;;;;;;;;;18.67;100.00;96005.59;10470970;28;1904;-67
2023/08/17 19:12:58;;;;;;;;;;;;;;;18.72;100.00;96005.44;10473516;28;1922;-69
2023/08/17 19:18:01;;;;;;;;;;;;;;;19.06;100.00;96009.28;10467926;28;1972;-68
2023/08/17 19:23:06;;;;;;;;;;;;;;;19.74;100.00;95991.19;10469943;28;1905;-68
2023/08/17 19:28:09;;;;;;;;;;;;;;;19.97;100.00;95991.72;10470203;28;2285;-68
2023/08/17 19:33:12;;;;;;;;;;;;;;;20.15;100.00;95976.06;10473405;28;2024;-67
2023/08/17 19:38:15;;;;;;;;;;;;;;;19.94;100.00;95974.09;10467228;28;2031;-67
2023/08/17 19:43:21;;;;;;;;;;;;;;;19.99;100.00;95970.41;10475202;28;4664;-67
2023/08/17 19:48:24;;;;;;;;;;;;;;;20.22;100.00;95965.44;10511547;28;1975;-71
2023/08/17 19:53:28;;;;;;;;;;;;;;;20.06;100.00;95975.34;10476809;28;2009;-68
2023/08/17 19:58:32;;;;;;;;;;;;;;;20.16;100.00;95970.28;10483561;28;1920;-68
2023/08/17 20:03:35;;;;;;;;;;;;;;;20.34;100.00;95960.06;10484664;28;1999;-71
2023/08/17 20:08:41;;;;;;;;;;;;;;;20.15;100.00;95965.16;10482692;28;2015;-70
2023/08/17 20:13:44;;;;;;;;;;;;;;;20.20;100.00;95943.13;10476870;28;1924;-67
2023/08/17 20:18:47;;;;;;;;;;;;;;;19.95;100.00;95948.41;10462951;28;1947;-66
2023/08/17 20:23:50;;;;;;;;;;;;;;;19.97;100.00;95940.69;10490113;28;1877;-67
2023/08/17 20:28:54;;;;;;;;;;;;;;;20.10;100.00;95938.84;10478622;28;1849;-66
2023/08/17 20:33:57;;;;;;;;;;;;;;;20.01;100.00;95940.84;10472594;28;1912;-66
2023/08/17 20:39:00;;;;;;;;;;;;;;;19.86;100.00;95949.59;10491616;28;2257;-68
2023/08/17 20:44:06;;;;;;;;;;;;;;;19.97;100.00;95959.78;10481860;28;4545;-67
2023/08/17 20:49:12;;;;;;;;;;;;;;;20.16;100.00;95964.81;10477923;28;1951;-67
2023/08/17 20:54:18;;;;;;;;;;;;;;;19.95;100.00;95972.16;10476539;28;1975;-66
2023/08/17 20:59:22;;;;;;;;;;;;;;;19.82;100.00;95984.91;10481116;28;2055;-67
2023/08/17 21:04:27;;;;;;;;;;;;;;;19.25;100.00;96022.56;10481983;28;1991;-75
2023/08/17 21:09:32;;;;;;;;;;;;;;;18.80;100.00;96052.88;10476288;28;1964;-75
2023/08/17 21:14:49;;;;;;;;;;;;;;;18.63;100.00;96048.16;10477753;28;2075;-75
2023/08/17 21:19:55;;;;;;;;;;;;;;;18.53;100.00;96034.88;10483179;28;1873;-73
2023/08/17 21:25:12;;;;;;;;;;;;;;;18.50;100.00;96019.94;10482529;28;1982;-74
2023/08/17 21:30:15;;;;;;;;;;;;;;;18.47;100.00;95998.81;10480700;28;2182;-76
2023/08/17 21:35:21;;;;;;;;;;;;;;;18.50;100.00;96000.09;10474028;28;2390;-75
2023/08/17 21:40:25;;;;;;;;;;;;;;;18.42;100.00;96000.91;10486313;28;1837;-75
2023/08/17 21:45:28;;;;;;;;;;;;;;;18.34;100.00;96006.00;10491266;28;4913;-75
2023/08/17 21:50:36;;;;;;;;;;;;;;;18.47;100.00;96003.47;10480937;28;1951;-76
2023/08/17 21:55:43;;;;;;;;;;;;;;;18.51;100.00;95988.91;10474819;28;1928;-75
2023/08/17 22:00:56;;;;;;;;;;;;;;;18.59;100.00;95995.47;10481891;28;1927;-74
2023/08/17 22:06:05;;;;;;;;;;;;;;;18.56;100.00;95985.22;10478025;28;1966;-74
2023/08/17 22:11:13;;;;;;;;;;;;;;;18.64;100.00;95987.16;10476894;28;1966;-76
2023/08/17 22:16:25;;;;;;;;;;;;;;;18.54;100.00;95982.00;10473788;28;2060;-75
2023/08/17 22:21:45;;;;;;;;;;;;;;;18.59;100.00;95973.69;10469662;28;2024;-74
2023/08/17 22:26:49;;;;;;;;;;;;;;;18.60;100.00;95978.81;10479816;28;1966;-74
2023/08/17 22:31:54;;;;;;;;;;;;;;;18.49;100.00;95991.13;10478709;28;2286;-75
2023/08/17 22:37:00;;;;;;;;;;;;;;;18.67;100.00;96000.16;10474282;28;2032;-73
2023/08/17 22:42:04;;;;;;;;;;;;;;;18.52;100.00;95989.72;10478309;28;1911;-74
2023/08/17 22:47:10;;;;;;;;;;;;;;;18.66;100.00;95990.34;10474340;28;1959;-75
2023/08/17 22:52:15;;;;;;;;;;;;;;;18.67;100.00;95986.53;10478322;28;1948;-74
2023/08/17 22:57:18;;;;;;;;;;;;;;;18.86;100.00;95978.84;10476593;28;1976;-76
2023/08/17 23:02:23;;;;;;;;;;;;;;;18.86;100.00;95967.16;10476042;28;1983;-75
2023/08/17 23:07:29;;;;;;;;;;;;;;;18.94;100.00;95965.53;10460631;28;1931;-75
2023/08/17 23:12:34;;;;;;;;;;;;;;;19.08;100.00;95942.44;10473883;28;1944;-75
2023/08/17 23:17:42;;;;;;;;;;;;;;;18.94;100.00;95938.31;10470496;28;1957;-75
2023/08/17 23:22:48;;;;;;;;;;;;;;;19.17;100.00;95921.44;10479770;28;1935;-76
2023/08/17 23:27:52;;;;;;;;;;;;;;;19.42;100.00;95917.03;10469588;28;2289;-76
2023/08/17 23:33:05;;;;;;;;;;;;;;;19.55;100.00;95906.22;10463932;28;2597;-75
2023/08/17 23:38:13;;;;;;;;;;;;;;;19.49;100.00;95902.09;10527036;28;2383;-75
2023/08/17 23:43:18;;;;;;;;;;;;;;;19.38;100.00;95901.63;10477123;28;4606;-75
2023/08/17 23:48:22;;;;;;;;;;;;;;;19.27;100.00;95906.63;10506915;28;2044;-76
2023/08/17 23:53:25;;;;;;;;;;;;;;;19.12;100.00;95909.91;10515938;28;1968;-75
2023/08/17 23:58:42;;;;;;;;;;;;;;;18.98;100.00;95909.31;10512624;28;2024;-75
